Haldimand, Canada
Current Conditions -  °F | °C
As of 7:00 AM on Monday 20 Oct 2014 (Local Time) from CYHM Reporting Station
Overcast Overcast  
Wind Chill: 42°   Ceiling: 4200
Heat Index: 45°   Visibility: 15mi
Dew Point: 37°   Wind: 5mph
Humidity: 76%   Direction: 180°S
Pressure: 29.89"   Gusts: NA
Location:  42.99°N, 79.83°W
Report Text: CYHM 201100Z 18004KT 15SM BKN042 BKN052 OVC090 07/03 A2989 RMK SC5SC1AC2 SLP129
Loading
Personal Weather Stations






























Interactive Weather Map
Tropical Storm Tracking
New forecast layout! Learn more

10-Day Weather Forecast

Advertisements
Track Severe Weather on mobile